sensor_id;sensor_type;location;lat;lon;timestamp;P1;durP1;ratioP1;P2;durP2;ratioP2
27213;SDS011;14723;55.814;37.460;2023-04-24T00:00:40;27.10;;;9.05;;
27213;SDS011;14723;55.814;37.460;2023-04-24T00:03:47;21.23;;;8.10;;
27213;SDS011;14723;55.814;37.460;2023-04-24T00:06:53;25.23;;;8.20;;
27213;SDS011;14723;55.814;37.460;2023-04-24T00:09:59;27.83;;;8.80;;
27213;SDS011;14723;55.814;37.460;2023-04-24T00:13:05;22.27;;;9.23;;
27213;SDS011;14723;55.814;37.460;2023-04-24T00:16:13;19.10;;;7.97;;
27213;SDS011;14723;55.814;37.460;2023-04-24T00:19:18;24.15;;;7.88;;
27213;SDS011;14723;55.814;37.460;2023-04-24T00:22:25;19.23;;;7.68;;
27213;SDS011;14723;55.814;37.460;2023-04-24T00:25:30;18.95;;;8.05;;
27213;SDS011;14723;55.814;37.460;2023-04-24T00:28:36;16.95;;;7.47;;
27213;SDS011;14723;55.814;37.460;2023-04-24T00:31:43;22.00;;;8.13;;
27213;SDS011;14723;55.814;37.460;2023-04-24T00:34:49;21.35;;;8.75;;
27213;SDS011;14723;55.814;37.460;2023-04-24T00:37:54;23.77;;;8.88;;
27213;SDS011;14723;55.814;37.460;2023-04-24T00:40:59;18.15;;;8.15;;
27213;SDS011;14723;55.814;37.460;2023-04-24T00:44:05;25.60;;;8.50;;
27213;SDS011;14723;55.814;37.460;2023-04-24T00:47:13;23.30;;;8.45;;
27213;SDS011;14723;55.814;37.460;2023-04-24T00:50:20;19.55;;;8.77;;
27213;SDS011;14723;55.814;37.460;2023-04-24T00:53:25;18.58;;;8.00;;
27213;SDS011;14723;55.814;37.460;2023-04-24T00:56:31;16.00;;;7.50;;
27213;SDS011;14723;55.814;37.460;2023-04-24T00:59:38;21.17;;;8.02;;
27213;SDS011;14723;55.814;37.460;2023-04-24T01:02:47;22.45;;;8.63;;
27213;SDS011;14723;55.814;37.460;2023-04-24T01:05:54;20.95;;;7.88;;
27213;SDS011;14723;55.814;37.460;2023-04-24T01:09:00;31.33;;;8.15;;
27213;SDS011;14723;55.814;37.460;2023-04-24T01:12:05;20.40;;;8.13;;
27213;SDS011;14723;55.814;37.460;2023-04-24T01:15:11;21.17;;;8.20;;
27213;SDS011;14723;55.814;37.460;2023-04-24T01:18:20;17.55;;;8.02;;
27213;SDS011;14723;55.814;37.460;2023-04-24T01:21:26;20.38;;;8.48;;
27213;SDS011;14723;55.814;37.460;2023-04-24T01:24:35;21.15;;;8.18;;
27213;SDS011;14723;55.814;37.460;2023-04-24T01:27:42;20.80;;;7.95;;
27213;SDS011;14723;55.814;37.460;2023-04-24T01:30:47;18.65;;;8.30;;
27213;SDS011;14723;55.814;37.460;2023-04-24T01:33:57;22.05;;;8.27;;
27213;SDS011;14723;55.814;37.460;2023-04-24T01:37:02;20.45;;;8.13;;
27213;SDS011;14723;55.814;37.460;2023-04-24T01:40:11;23.50;;;8.50;;
27213;SDS011;14723;55.814;37.460;2023-04-24T01:43:16;29.00;;;8.90;;
27213;SDS011;14723;55.814;37.460;2023-04-24T01:46:21;19.10;;;7.57;;
27213;SDS011;14723;55.814;37.460;2023-04-24T01:49:26;21.38;;;8.30;;
27213;SDS011;14723;55.814;37.460;2023-04-24T01:52:32;16.50;;;8.18;;
27213;SDS011;14723;55.814;37.460;2023-04-24T01:55:40;22.30;;;9.07;;
27213;SDS011;14723;55.814;37.460;2023-04-24T01:58:47;22.35;;;9.30;;
27213;SDS011;14723;55.814;37.460;2023-04-24T02:01:53;20.00;;;11.88;;
27213;SDS011;14723;55.814;37.460;2023-04-24T02:04:58;21.70;;;10.85;;
27213;SDS011;14723;55.814;37.460;2023-04-24T02:08:05;28.02;;;14.00;;
27213;SDS011;14723;55.814;37.460;2023-04-24T02:11:14;20.45;;;12.40;;
27213;SDS011;14723;55.814;37.460;2023-04-24T02:14:21;22.63;;;11.98;;
27213;SDS011;14723;55.814;37.460;2023-04-24T02:17:26;30.15;;;13.75;;
27213;SDS011;14723;55.814;37.460;2023-04-24T02:20:33;20.15;;;11.38;;
27213;SDS011;14723;55.814;37.460;2023-04-24T02:23:38;19.35;;;10.00;;
27213;SDS011;14723;55.814;37.460;2023-04-24T02:29:54;21.83;;;11.25;;
27213;SDS011;14723;55.814;37.460;2023-04-24T02:36:05;20.15;;;12.85;;
27213;SDS011;14723;55.814;37.460;2023-04-24T02:39:11;26.25;;;13.07;;
27213;SDS011;14723;55.814;37.460;2023-04-24T02:42:18;28.27;;;13.43;;
27213;SDS011;14723;55.814;37.460;2023-04-24T02:45:26;30.42;;;14.25;;
27213;SDS011;14723;55.814;37.460;2023-04-24T02:48:32;26.90;;;13.80;;
27213;SDS011;14723;55.814;37.460;2023-04-24T02:51:37;27.77;;;14.48;;
27213;SDS011;14723;55.814;37.460;2023-04-24T02:54:43;36.38;;;17.02;;
27213;SDS011;14723;55.814;37.460;2023-04-24T02:57:48;41.85;;;16.00;;
27213;SDS011;14723;55.814;37.460;2023-04-24T03:00:57;27.83;;;14.00;;
27213;SDS011;14723;55.814;37.460;2023-04-24T03:04:02;38.60;;;15.00;;
27213;SDS011;14723;55.814;37.460;2023-04-24T03:07:09;32.25;;;13.90;;
27213;SDS011;14723;55.814;37.460;2023-04-24T03:10:14;37.22;;;15.35;;
27213;SDS011;14723;55.814;37.460;2023-04-24T03:13:20;38.42;;;15.05;;
27213;SDS011;14723;55.814;37.460;2023-04-24T03:16:28;40.90;;;15.60;;
27213;SDS011;14723;55.814;37.460;2023-04-24T03:19:35;40.65;;;15.73;;
27213;SDS011;14723;55.814;37.460;2023-04-24T03:22:44;47.65;;;14.50;;
27213;SDS011;14723;55.814;37.460;2023-04-24T03:25:50;42.28;;;14.57;;
27213;SDS011;14723;55.814;37.460;2023-04-24T03:28:56;37.75;;;15.15;;
27213;SDS011;14723;55.814;37.460;2023-04-24T03:32:05;34.08;;;12.45;;
27213;SDS011;14723;55.814;37.460;2023-04-24T03:35:12;34.22;;;12.75;;
27213;SDS011;14723;55.814;37.460;2023-04-24T03:38:17;29.70;;;12.65;;
27213;SDS011;14723;55.814;37.460;2023-04-24T03:41:35;25.33;;;12.15;;
27213;SDS011;14723;55.814;37.460;2023-04-24T03:44:51;27.75;;;12.80;;
27213;SDS011;14723;55.814;37.460;2023-04-24T03:48:04;31.23;;;13.27;;
27213;SDS011;14723;55.814;37.460;2023-04-24T03:51:10;23.75;;;11.27;;
27213;SDS011;14723;55.814;37.460;2023-04-24T03:54:19;31.83;;;11.95;;
27213;SDS011;14723;55.814;37.460;2023-04-24T03:57:26;27.95;;;11.27;;
27213;SDS011;14723;55.814;37.460;2023-04-24T04:00:43;23.35;;;12.57;;
27213;SDS011;14723;55.814;37.460;2023-04-24T04:04:14;27.83;;;11.85;;
27213;SDS011;14723;55.814;37.460;2023-04-24T04:07:20;29.73;;;12.63;;
27213;SDS011;14723;55.814;37.460;2023-04-24T04:10:26;24.05;;;13.00;;
27213;SDS011;14723;55.814;37.460;2023-04-24T04:13:31;29.23;;;12.00;;
27213;SDS011;14723;55.814;37.460;2023-04-24T04:16:37;26.20;;;12.35;;
27213;SDS011;14723;55.814;37.460;2023-04-24T04:19:45;27.20;;;12.63;;
27213;SDS011;14723;55.814;37.460;2023-04-24T04:22:50;21.10;;;11.45;;
27213;SDS011;14723;55.814;37.460;2023-04-24T04:26:06;19.40;;;11.13;;
27213;SDS011;14723;55.814;37.460;2023-04-24T04:29:24;21.23;;;12.75;;
27213;SDS011;14723;55.814;37.460;2023-04-24T04:32:30;24.05;;;12.30;;
27213;SDS011;14723;55.814;37.460;2023-04-24T04:35:40;20.15;;;11.13;;
27213;SDS011;14723;55.814;37.460;2023-04-24T04:38:46;22.88;;;11.73;;
27213;SDS011;14723;55.814;37.460;2023-04-24T04:42:08;21.98;;;10.93;;
27213;SDS011;14723;55.814;37.460;2023-04-24T04:45:16;28.15;;;11.10;;
27213;SDS011;14723;55.814;37.460;2023-04-24T04:48:43;19.75;;;10.63;;
27213;SDS011;14723;55.814;37.460;2023-04-24T04:51:51;19.95;;;10.85;;
27213;SDS011;14723;55.814;37.460;2023-04-24T04:54:59;19.98;;;10.63;;
27213;SDS011;14723;55.814;37.460;2023-04-24T04:58:24;17.17;;;10.05;;
27213;SDS011;14723;55.814;37.460;2023-04-24T05:04:41;20.05;;;11.57;;
27213;SDS011;14723;55.814;37.460;2023-04-24T05:07:51;20.67;;;11.80;;
27213;SDS011;14723;55.814;37.460;2023-04-24T05:10:56;18.55;;;10.60;;
27213;SDS011;14723;55.814;37.460;2023-04-24T05:14:04;17.65;;;11.20;;
27213;SDS011;14723;55.814;37.460;2023-04-24T05:17:11;18.80;;;11.23;;
27213;SDS011;14723;55.814;37.460;2023-04-24T05:20:17;16.45;;;9.77;;
27213;SDS011;14723;55.814;37.460;2023-04-24T05:23:25;17.60;;;9.82;;
27213;SDS011;14723;55.814;37.460;2023-04-24T05:26:32;18.15;;;10.73;;
27213;SDS011;14723;55.814;37.460;2023-04-24T05:29:38;18.23;;;10.55;;
27213;SDS011;14723;55.814;37.460;2023-04-24T05:32:45;16.50;;;9.50;;
27213;SDS011;14723;55.814;37.460;2023-04-24T05:35:50;21.80;;;9.98;;
27213;SDS011;14723;55.814;37.460;2023-04-24T05:38:58;17.05;;;9.77;;
27213;SDS011;14723;55.814;37.460;2023-04-24T05:42:05;15.80;;;10.25;;
27213;SDS011;14723;55.814;37.460;2023-04-24T05:45:10;17.67;;;9.27;;
27213;SDS011;14723;55.814;37.460;2023-04-24T05:48:19;23.17;;;10.82;;
27213;SDS011;14723;55.814;37.460;2023-04-24T05:51:24;22.40;;;10.75;;
27213;SDS011;14723;55.814;37.460;2023-04-24T05:54:33;17.60;;;10.35;;
27213;SDS011;14723;55.814;37.460;2023-04-24T05:57:38;22.95;;;11.07;;
27213;SDS011;14723;55.814;37.460;2023-04-24T06:00:43;20.70;;;9.52;;
27213;SDS011;14723;55.814;37.460;2023-04-24T06:03:49;15.02;;;9.65;;
27213;SDS011;14723;55.814;37.460;2023-04-24T06:06:55;22.88;;;10.95;;
27213;SDS011;14723;55.814;37.460;2023-04-24T06:10:04;15.90;;;10.05;;
27213;SDS011;14723;55.814;37.460;2023-04-24T06:13:15;19.05;;;10.60;;
27213;SDS011;14723;55.814;37.460;2023-04-24T06:16:59;19.42;;;9.75;;
27213;SDS011;14723;55.814;37.460;2023-04-24T06:20:10;20.95;;;9.48;;
27213;SDS011;14723;55.814;37.460;2023-04-24T06:23:15;21.45;;;9.45;;
27213;SDS011;14723;55.814;37.460;2023-04-24T06:26:24;22.08;;;9.55;;
27213;SDS011;14723;55.814;37.460;2023-04-24T06:29:30;21.52;;;9.13;;
27213;SDS011;14723;55.814;37.460;2023-04-24T06:32:35;17.15;;;8.90;;
27213;SDS011;14723;55.814;37.460;2023-04-24T06:35:40;18.85;;;9.30;;
27213;SDS011;14723;55.814;37.460;2023-04-24T06:38:46;16.83;;;8.85;;
27213;SDS011;14723;55.814;37.460;2023-04-24T06:41:54;16.77;;;9.05;;
27213;SDS011;14723;55.814;37.460;2023-04-24T06:44:59;17.38;;;9.48;;
27213;SDS011;14723;55.814;37.460;2023-04-24T06:48:08;13.90;;;8.85;;
27213;SDS011;14723;55.814;37.460;2023-04-24T06:51:14;17.88;;;7.90;;
27213;SDS011;14723;55.814;37.460;2023-04-24T06:54:20;18.63;;;8.40;;
27213;SDS011;14723;55.814;37.460;2023-04-24T06:57:28;14.25;;;7.45;;
27213;SDS011;14723;55.814;37.460;2023-04-24T07:00:33;21.25;;;8.07;;
27213;SDS011;14723;55.814;37.460;2023-04-24T07:03:39;22.55;;;8.07;;
27213;SDS011;14723;55.814;37.460;2023-04-24T07:06:45;13.77;;;7.13;;
27213;SDS011;14723;55.814;37.460;2023-04-24T07:09:51;14.10;;;6.50;;
27213;SDS011;14723;55.814;37.460;2023-04-24T07:13:01;11.18;;;6.68;;
27213;SDS011;14723;55.814;37.460;2023-04-24T07:16:06;12.93;;;7.18;;
27213;SDS011;14723;55.814;37.460;2023-04-24T07:19:13;9.43;;;6.75;;
27213;SDS011;14723;55.814;37.460;2023-04-24T07:22:18;18.45;;;6.82;;
27213;SDS011;14723;55.814;37.460;2023-04-24T07:25:24;15.05;;;6.65;;
27213;SDS011;14723;55.814;37.460;2023-04-24T07:28:32;11.27;;;6.93;;
27213;SDS011;14723;55.814;37.460;2023-04-24T07:31:37;11.10;;;6.07;;
27213;SDS011;14723;55.814;37.460;2023-04-24T07:34:43;15.07;;;6.20;;
27213;SDS011;14723;55.814;37.460;2023-04-24T07:37:48;12.23;;;6.50;;
27213;SDS011;14723;55.814;37.460;2023-04-24T07:40:54;8.48;;;5.80;;
27213;SDS011;14723;55.814;37.460;2023-04-24T07:44:02;11.80;;;6.35;;
27213;SDS011;14723;55.814;37.460;2023-04-24T07:47:07;9.05;;;5.93;;
27213;SDS011;14723;55.814;37.460;2023-04-24T07:50:13;9.50;;;6.00;;
27213;SDS011;14723;55.814;37.460;2023-04-24T07:53:18;10.07;;;6.20;;
27213;SDS011;14723;55.814;37.460;2023-04-24T07:56:24;16.65;;;5.75;;
27213;SDS011;14723;55.814;37.460;2023-04-24T07:59:32;8.07;;;5.35;;
27213;SDS011;14723;55.814;37.460;2023-04-24T08:05:42;8.45;;;5.78;;
27213;SDS011;14723;55.814;37.460;2023-04-24T08:08:48;9.77;;;5.28;;
27213;SDS011;14723;55.814;37.460;2023-04-24T08:11:54;11.50;;;5.40;;
27213;SDS011;14723;55.814;37.460;2023-04-24T08:15:02;6.80;;;5.75;;
27213;SDS011;14723;55.814;37.460;2023-04-24T08:18:07;8.93;;;5.38;;
27213;SDS011;14723;55.814;37.460;2023-04-24T08:21:14;12.02;;;5.70;;
27213;SDS011;14723;55.814;37.460;2023-04-24T08:24:20;9.57;;;5.88;;
27213;SDS011;14723;55.814;37.460;2023-04-24T08:27:26;12.13;;;6.20;;
27213;SDS011;14723;55.814;37.460;2023-04-24T08:30:34;12.30;;;6.22;;
27213;SDS011;14723;55.814;37.460;2023-04-24T08:33:40;10.25;;;6.13;;
27213;SDS011;14723;55.814;37.460;2023-04-24T08:36:47;9.15;;;6.22;;
27213;SDS011;14723;55.814;37.460;2023-04-24T08:39:53;10.95;;;6.47;;
27213;SDS011;14723;55.814;37.460;2023-04-24T08:42:58;8.30;;;6.05;;
27213;SDS011;14723;55.814;37.460;2023-04-24T08:46:07;14.45;;;6.35;;
27213;SDS011;14723;55.814;37.460;2023-04-24T08:49:14;9.38;;;6.07;;
27213;SDS011;14723;55.814;37.460;2023-04-24T08:52:19;12.20;;;6.20;;
27213;SDS011;14723;55.814;37.460;2023-04-24T08:55:25;9.30;;;6.00;;
27213;SDS011;14723;55.814;37.460;2023-04-24T08:58:31;9.98;;;5.88;;
27213;SDS011;14723;55.814;37.460;2023-04-24T09:01:39;8.38;;;5.90;;
27213;SDS011;14723;55.814;37.460;2023-04-24T09:04:45;9.27;;;6.75;;
27213;SDS011;14723;55.814;37.460;2023-04-24T09:07:53;11.80;;;6.40;;
27213;SDS011;14723;55.814;37.460;2023-04-24T09:10:59;6.93;;;5.28;;
27213;SDS011;14723;55.814;37.460;2023-04-24T09:14:05;7.60;;;5.85;;
27213;SDS011;14723;55.814;37.460;2023-04-24T09:17:14;9.30;;;5.78;;
27213;SDS011;14723;55.814;37.460;2023-04-24T09:20:19;8.50;;;6.82;;
27213;SDS011;14723;55.814;37.460;2023-04-24T09:23:25;12.05;;;6.00;;
27213;SDS011;14723;55.814;37.460;2023-04-24T09:26:31;12.27;;;6.35;;
27213;SDS011;14723;55.814;37.460;2023-04-24T09:29:37;12.30;;;6.93;;
27213;SDS011;14723;55.814;37.460;2023-04-24T09:32:45;12.23;;;6.05;;
27213;SDS011;14723;55.814;37.460;2023-04-24T09:35:51;9.05;;;6.13;;
27213;SDS011;14723;55.814;37.460;2023-04-24T09:38:57;7.93;;;5.75;;
27213;SDS011;14723;55.814;37.460;2023-04-24T09:42:03;7.30;;;5.47;;
27213;SDS011;14723;55.814;37.460;2023-04-24T09:45:09;7.97;;;5.28;;
27213;SDS011;14723;55.814;37.460;2023-04-24T09:48:19;8.38;;;5.75;;
27213;SDS011;14723;55.814;37.460;2023-04-24T09:51:33;7.50;;;5.32;;
27213;SDS011;14723;55.814;37.460;2023-04-24T09:54:39;9.00;;;5.90;;
27213;SDS011;14723;55.814;37.460;2023-04-24T09:57:51;7.43;;;5.25;;
27213;SDS011;14723;55.814;37.460;2023-04-24T10:00:57;10.05;;;5.80;;
27213;SDS011;14723;55.814;37.460;2023-04-24T10:04:05;7.50;;;5.28;;
27213;SDS011;14723;55.814;37.460;2023-04-24T10:07:11;7.65;;;5.57;;
27213;SDS011;14723;55.814;37.460;2023-04-24T10:10:16;7.78;;;5.85;;
27213;SDS011;14723;55.814;37.460;2023-04-24T10:13:22;8.80;;;5.68;;
27213;SDS011;14723;55.814;37.460;2023-04-24T10:16:27;7.50;;;5.55;;
27213;SDS011;14723;55.814;37.460;2023-04-24T10:19:36;8.95;;;5.85;;
27213;SDS011;14723;55.814;37.460;2023-04-24T10:22:42;9.23;;;5.60;;
27213;SDS011;14723;55.814;37.460;2023-04-24T10:25:48;8.95;;;5.38;;
27213;SDS011;14723;55.814;37.460;2023-04-24T10:28:54;8.32;;;4.70;;
27213;SDS011;14723;55.814;37.460;2023-04-24T10:35:10;6.72;;;4.80;;
27213;SDS011;14723;55.814;37.460;2023-04-24T10:38:18;8.68;;;5.10;;
27213;SDS011;14723;55.814;37.460;2023-04-24T10:41:27;11.32;;;5.45;;
27213;SDS011;14723;55.814;37.460;2023-04-24T10:44:35;9.13;;;4.97;;
27213;SDS011;14723;55.814;37.460;2023-04-24T10:47:41;11.57;;;5.88;;
27213;SDS011;14723;55.814;37.460;2023-04-24T10:50:50;7.32;;;4.80;;
27213;SDS011;14723;55.814;37.460;2023-04-24T10:53:57;7.97;;;5.47;;
27213;SDS011;14723;55.814;37.460;2023-04-24T11:00:30;9.38;;;5.28;;
27213;SDS011;14723;55.814;37.460;2023-04-24T11:03:36;9.13;;;4.95;;
27213;SDS011;14723;55.814;37.460;2023-04-24T11:06:47;6.35;;;4.68;;
27213;SDS011;14723;55.814;37.460;2023-04-24T11:09:57;5.45;;;4.70;;
27213;SDS011;14723;55.814;37.460;2023-04-24T11:13:04;8.77;;;4.78;;
27213;SDS011;14723;55.814;37.460;2023-04-24T11:19:18;7.57;;;4.60;;
27213;SDS011;14723;55.814;37.460;2023-04-24T11:22:28;8.43;;;5.03;;
27213;SDS011;14723;55.814;37.460;2023-04-24T11:25:36;8.82;;;5.35;;
27213;SDS011;14723;55.814;37.460;2023-04-24T11:28:45;6.25;;;4.75;;
27213;SDS011;14723;55.814;37.460;2023-04-24T11:31:51;5.30;;;4.80;;
27213;SDS011;14723;55.814;37.460;2023-04-24T11:34:57;7.25;;;5.18;;
27213;SDS011;14723;55.814;37.460;2023-04-24T11:38:09;5.97;;;5.13;;
27213;SDS011;14723;55.814;37.460;2023-04-24T11:41:26;9.48;;;5.40;;
27213;SDS011;14723;55.814;37.460;2023-04-24T11:44:32;8.00;;;5.10;;
27213;SDS011;14723;55.814;37.460;2023-04-24T11:47:39;6.05;;;4.82;;
27213;SDS011;14723;55.814;37.460;2023-04-24T11:50:45;8.85;;;5.00;;
27213;SDS011;14723;55.814;37.460;2023-04-24T11:53:54;8.90;;;5.47;;
27213;SDS011;14723;55.814;37.460;2023-04-24T11:57:05;20.45;;;8.93;;
27213;SDS011;14723;55.814;37.460;2023-04-24T12:00:15;9.30;;;5.60;;
27213;SDS011;14723;55.814;37.460;2023-04-24T12:03:21;7.97;;;6.15;;
27213;SDS011;14723;55.814;37.460;2023-04-24T12:06:27;8.35;;;5.38;;
27213;SDS011;14723;55.814;37.460;2023-04-24T12:09:47;5.85;;;5.03;;
27213;SDS011;14723;55.814;37.460;2023-04-24T12:12:54;7.43;;;5.15;;
27213;SDS011;14723;55.814;37.460;2023-04-24T12:16:01;6.07;;;4.97;;
27213;SDS011;14723;55.814;37.460;2023-04-24T12:19:07;6.82;;;4.82;;
27213;SDS011;14723;55.814;37.460;2023-04-24T12:22:12;5.00;;;4.43;;
27213;SDS011;14723;55.814;37.460;2023-04-24T12:25:21;8.93;;;5.20;;
27213;SDS011;14723;55.814;37.460;2023-04-24T12:28:34;6.97;;;4.90;;
27213;SDS011;14723;55.814;37.460;2023-04-24T12:31:40;7.65;;;5.32;;
27213;SDS011;14723;55.814;37.460;2023-04-24T12:34:45;5.95;;;4.93;;
27213;SDS011;14723;55.814;37.460;2023-04-24T12:37:51;5.15;;;4.60;;
27213;SDS011;14723;55.814;37.460;2023-04-24T12:41:06;6.85;;;5.03;;
27213;SDS011;14723;55.814;37.460;2023-04-24T12:44:11;6.03;;;4.88;;
27213;SDS011;14723;55.814;37.460;2023-04-24T12:47:17;9.38;;;4.72;;
27213;SDS011;14723;55.814;37.460;2023-04-24T12:50:23;5.60;;;4.72;;
27213;SDS011;14723;55.814;37.460;2023-04-24T12:53:28;5.28;;;4.70;;
27213;SDS011;14723;55.814;37.460;2023-04-24T12:56:37;7.43;;;4.07;;
27213;SDS011;14723;55.814;37.460;2023-04-24T12:59:42;5.00;;;4.60;;
27213;SDS011;14723;55.814;37.460;2023-04-24T13:02:47;6.35;;;4.82;;
27213;SDS011;14723;55.814;37.460;2023-04-24T13:05:53;6.45;;;4.65;;
27213;SDS011;14723;55.814;37.460;2023-04-24T13:08:58;6.10;;;4.53;;
27213;SDS011;14723;55.814;37.460;2023-04-24T13:12:06;7.13;;;5.00;;
27213;SDS011;14723;55.814;37.460;2023-04-24T13:15:12;6.70;;;5.00;;
27213;SDS011;14723;55.814;37.460;2023-04-24T13:18:19;5.47;;;4.57;;
27213;SDS011;14723;55.814;37.460;2023-04-24T13:21:24;6.05;;;4.50;;
27213;SDS011;14723;55.814;37.460;2023-04-24T13:24:30;7.13;;;4.50;;
27213;SDS011;14723;55.814;37.460;2023-04-24T13:27:40;4.40;;;4.00;;
27213;SDS011;14723;55.814;37.460;2023-04-24T13:30:45;12.30;;;6.30;;
27213;SDS011;14723;55.814;37.460;2023-04-24T13:33:53;6.63;;;5.13;;
27213;SDS011;14723;55.814;37.460;2023-04-24T13:36:58;5.13;;;4.32;;
27213;SDS011;14723;55.814;37.460;2023-04-24T13:40:05;5.05;;;4.45;;
27213;SDS011;14723;55.814;37.460;2023-04-24T13:43:14;12.25;;;4.75;;
27213;SDS011;14723;55.814;37.460;2023-04-24T13:46:19;7.32;;;4.30;;
27213;SDS011;14723;55.814;37.460;2023-04-24T13:49:25;8.10;;;4.78;;
27213;SDS011;14723;55.814;37.460;2023-04-24T13:52:31;7.63;;;4.38;;
27213;SDS011;14723;55.814;37.460;2023-04-24T13:55:36;5.85;;;3.95;;
27213;SDS011;14723;55.814;37.460;2023-04-24T13:58:44;7.18;;;4.80;;
27213;SDS011;14723;55.814;37.460;2023-04-24T14:01:49;10.13;;;4.63;;
27213;SDS011;14723;55.814;37.460;2023-04-24T14:04:55;6.32;;;4.70;;
27213;SDS011;14723;55.814;37.460;2023-04-24T14:08:01;13.35;;;5.15;;
27213;SDS011;14723;55.814;37.460;2023-04-24T14:11:08;10.57;;;4.90;;
27213;SDS011;14723;55.814;37.460;2023-04-24T14:14:16;6.22;;;4.75;;
27213;SDS011;14723;55.814;37.460;2023-04-24T14:17:22;10.20;;;4.72;;
27213;SDS011;14723;55.814;37.460;2023-04-24T14:20:28;6.25;;;4.28;;
27213;SDS011;14723;55.814;37.460;2023-04-24T14:23:33;6.68;;;4.30;;
27213;SDS011;14723;55.814;37.460;2023-04-24T14:26:39;5.15;;;3.97;;
27213;SDS011;14723;55.814;37.460;2023-04-24T14:29:46;6.03;;;3.97;;
27213;SDS011;14723;55.814;37.460;2023-04-24T14:32:52;5.45;;;4.30;;
27213;SDS011;14723;55.814;37.460;2023-04-24T14:35:57;4.60;;;4.20;;
27213;SDS011;14723;55.814;37.460;2023-04-24T14:39:04;5.68;;;4.28;;
27213;SDS011;14723;55.814;37.460;2023-04-24T14:42:10;8.57;;;4.55;;
27213;SDS011;14723;55.814;37.460;2023-04-24T14:45:18;5.95;;;4.43;;
27213;SDS011;14723;55.814;37.460;2023-04-24T14:48:24;8.82;;;4.38;;
27213;SDS011;14723;55.814;37.460;2023-04-24T14:51:29;9.20;;;4.28;;
27213;SDS011;14723;55.814;37.460;2023-04-24T14:54:35;8.20;;;5.22;;
27213;SDS011;14723;55.814;37.460;2023-04-24T14:57:41;7.18;;;4.95;;
27213;SDS011;14723;55.814;37.460;2023-04-24T15:00:49;13.50;;;4.78;;
27213;SDS011;14723;55.814;37.460;2023-04-24T15:03:56;6.93;;;4.63;;
27213;SDS011;14723;55.814;37.460;2023-04-24T15:07:03;7.50;;;4.45;;
27213;SDS011;14723;55.814;37.460;2023-04-24T15:10:09;10.77;;;4.70;;
27213;SDS011;14723;55.814;37.460;2023-04-24T15:13:15;9.50;;;5.07;;
27213;SDS011;14723;55.814;37.460;2023-04-24T15:16:23;14.43;;;5.90;;
27213;SDS011;14723;55.814;37.460;2023-04-24T15:19:31;5.90;;;4.70;;
27213;SDS011;14723;55.814;37.460;2023-04-24T15:22:36;10.60;;;4.38;;
27213;SDS011;14723;55.814;37.460;2023-04-24T15:25:42;7.13;;;4.95;;
27213;SDS011;14723;55.814;37.460;2023-04-24T15:28:47;7.15;;;4.25;;
27213;SDS011;14723;55.814;37.460;2023-04-24T15:31:56;6.72;;;4.07;;
27213;SDS011;14723;55.814;37.460;2023-04-24T15:38:10;7.32;;;4.22;;
27213;SDS011;14723;55.814;37.460;2023-04-24T15:41:15;6.53;;;4.45;;
27213;SDS011;14723;55.814;37.460;2023-04-24T15:44:21;5.75;;;4.35;;
27213;SDS011;14723;55.814;37.460;2023-04-24T15:47:29;6.90;;;3.95;;
27213;SDS011;14723;55.814;37.460;2023-04-24T15:50:35;8.50;;;4.40;;
27213;SDS011;14723;55.814;37.460;2023-04-24T15:53:40;7.15;;;4.63;;
27213;SDS011;14723;55.814;37.460;2023-04-24T15:56:46;9.32;;;4.95;;
27213;SDS011;14723;55.814;37.460;2023-04-24T15:59:52;6.95;;;4.40;;
27213;SDS011;14723;55.814;37.460;2023-04-24T16:03:00;13.05;;;4.80;;
27213;SDS011;14723;55.814;37.460;2023-04-24T16:06:08;9.27;;;4.90;;
27213;SDS011;14723;55.814;37.460;2023-04-24T16:09:15;9.18;;;4.55;;
27213;SDS011;14723;55.814;37.460;2023-04-24T16:12:20;11.20;;;4.55;;
27213;SDS011;14723;55.814;37.460;2023-04-24T16:15:29;13.00;;;4.18;;
27213;SDS011;14723;55.814;37.460;2023-04-24T16:18:37;6.65;;;4.38;;
27213;SDS011;14723;55.814;37.460;2023-04-24T16:21:42;6.47;;;4.10;;
27213;SDS011;14723;55.814;37.460;2023-04-24T16:24:48;8.23;;;4.30;;
27213;SDS011;14723;55.814;37.460;2023-04-24T16:27:53;7.13;;;4.00;;
27213;SDS011;14723;55.814;37.460;2023-04-24T16:30:58;8.70;;;4.45;;
27213;SDS011;14723;55.814;37.460;2023-04-24T16:34:07;14.40;;;4.13;;
27213;SDS011;14723;55.814;37.460;2023-04-24T16:37:12;9.63;;;4.40;;
27213;SDS011;14723;55.814;37.460;2023-04-24T16:40:19;9.57;;;4.15;;
27213;SDS011;14723;55.814;37.460;2023-04-24T16:43:24;8.63;;;5.13;;
27213;SDS011;14723;55.814;37.460;2023-04-24T16:46:30;8.50;;;4.50;;
27213;SDS011;14723;55.814;37.460;2023-04-24T16:49:38;9.70;;;4.38;;
27213;SDS011;14723;55.814;37.460;2023-04-24T16:52:43;17.20;;;4.97;;
27213;SDS011;14723;55.814;37.460;2023-04-24T16:55:49;9.27;;;4.60;;
27213;SDS011;14723;55.814;37.460;2023-04-24T16:58:54;10.75;;;3.97;;
27213;SDS011;14723;55.814;37.460;2023-04-24T17:02:00;9.30;;;4.00;;
27213;SDS011;14723;55.814;37.460;2023-04-24T17:05:09;10.02;;;3.97;;
27213;SDS011;14723;55.814;37.460;2023-04-24T17:08:15;8.30;;;4.60;;
27213;SDS011;14723;55.814;37.460;2023-04-24T17:11:21;7.28;;;4.50;;
27213;SDS011;14723;55.814;37.460;2023-04-24T17:14:26;7.97;;;4.10;;
27213;SDS011;14723;55.814;37.460;2023-04-24T17:17:32;10.13;;;4.45;;
27213;SDS011;14723;55.814;37.460;2023-04-24T17:20:40;8.18;;;4.53;;
27213;SDS011;14723;55.814;37.460;2023-04-24T17:23:46;9.30;;;4.75;;
27213;SDS011;14723;55.814;37.460;2023-04-24T17:26:51;14.27;;;4.97;;
27213;SDS011;14723;55.814;37.460;2023-04-24T17:30:09;11.77;;;4.82;;
27213;SDS011;14723;55.814;37.460;2023-04-24T17:33:15;19.65;;;5.60;;
27213;SDS011;14723;55.814;37.460;2023-04-24T17:36:26;9.88;;;5.20;;
27213;SDS011;14723;55.814;37.460;2023-04-24T17:39:32;11.95;;;4.90;;
27213;SDS011;14723;55.814;37.460;2023-04-24T17:42:38;9.38;;;4.90;;
27213;SDS011;14723;55.814;37.460;2023-04-24T17:45:45;8.23;;;5.50;;
27213;SDS011;14723;55.814;37.460;2023-04-24T17:48:51;7.55;;;5.13;;
27213;SDS011;14723;55.814;37.460;2023-04-24T17:51:59;11.00;;;4.82;;
27213;SDS011;14723;55.814;37.460;2023-04-24T17:55:05;12.10;;;5.43;;
27213;SDS011;14723;55.814;37.460;2023-04-24T17:58:10;10.48;;;5.10;;
27213;SDS011;14723;55.814;37.460;2023-04-24T18:01:16;10.63;;;5.22;;
27213;SDS011;14723;55.814;37.460;2023-04-24T18:04:21;16.15;;;5.60;;
27213;SDS011;14723;55.814;37.460;2023-04-24T18:07:30;15.77;;;5.90;;
27213;SDS011;14723;55.814;37.460;2023-04-24T18:10:35;20.95;;;7.18;;
27213;SDS011;14723;55.814;37.460;2023-04-24T18:13:41;12.48;;;5.57;;
27213;SDS011;14723;55.814;37.460;2023-04-24T18:16:47;16.73;;;5.93;;
27213;SDS011;14723;55.814;37.460;2023-04-24T18:19:53;15.77;;;6.60;;
27213;SDS011;14723;55.814;37.460;2023-04-24T18:23:01;16.20;;;5.80;;
27213;SDS011;14723;55.814;37.460;2023-04-24T18:26:07;14.30;;;6.20;;
27213;SDS011;14723;55.814;37.460;2023-04-24T18:29:12;13.73;;;6.32;;
27213;SDS011;14723;55.814;37.460;2023-04-24T18:32:18;16.30;;;5.97;;
27213;SDS011;14723;55.814;37.460;2023-04-24T18:35:23;19.10;;;5.93;;
27213;SDS011;14723;55.814;37.460;2023-04-24T18:38:31;10.45;;;5.68;;
27213;SDS011;14723;55.814;37.460;2023-04-24T18:41:38;12.60;;;5.80;;